createdAt,value
2022-09-10T00:01:40.490Z,3.60
2022-09-10T00:06:43.571Z,3.70
2022-09-10T00:11:46.675Z,3.46
2022-09-10T00:16:50.203Z,3.49
2022-09-10T00:21:52.393Z,3.49
2022-09-10T00:26:54.667Z,3.29
2022-09-10T00:31:57.064Z,3.39
2022-09-10T00:36:59.599Z,3.47
2022-09-10T00:42:01.815Z,3.29
2022-09-10T00:47:06.135Z,3.11
2022-09-10T00:52:09.558Z,3.47
2022-09-10T00:57:14.570Z,3.36
2022-09-10T01:02:16.977Z,3.08
2022-09-10T01:07:21.629Z,3.14
2022-09-10T01:12:41.283Z,3.34
2022-09-10T01:18:22.622Z,3.09
2022-09-10T01:23:52.852Z,3.24
2022-09-10T01:29:01.450Z,3.20
2022-09-10T01:34:34.736Z,3.12
2022-09-10T01:39:39.136Z,3.00
2022-09-10T01:44:47.982Z,3.07
2022-09-10T01:50:24.524Z,2.97
2022-09-10T01:55:42.400Z,2.98
2022-09-10T02:00:58.670Z,2.78
2022-09-10T02:06:02.533Z,2.37
2022-09-10T02:11:12.042Z,2.75
2022-09-10T02:16:42.107Z,2.29
2022-09-10T02:22:24.175Z,2.86
2022-09-10T02:27:30.242Z,0.66
2022-09-10T02:32:32.767Z,2.08
2022-09-10T02:37:36.054Z,2.08
2022-09-10T02:42:38.561Z,0.20
2022-09-10T02:47:41.125Z,1.95
2022-09-10T02:52:46.600Z,0.81
2022-09-10T02:57:49.434Z,0.58
2022-09-10T03:02:52.087Z,1.58
2022-09-10T03:07:55.655Z,1.40
2022-09-10T03:12:58.527Z,0.37
2022-09-10T03:18:00.694Z,-0.01
2022-09-10T03:23:06.631Z,2.17
2022-09-10T03:28:09.903Z,2.44
2022-09-10T03:33:12.236Z,1.97
2022-09-10T03:38:15.927Z,1.90
2022-09-10T03:43:18.833Z,2.16
2022-09-10T03:48:21.574Z,2.26
2022-09-10T03:53:24.313Z,2.27
2022-09-10T03:58:27.684Z,2.09
2022-09-10T04:03:30.057Z,2.16
2022-09-10T04:08:34.847Z,2.19
2022-09-10T04:13:40.229Z,2.24
2022-09-10T04:18:42.872Z,2.39
2022-09-10T04:23:45.853Z,1.92
2022-09-10T04:28:48.699Z,2.62
2022-09-10T04:33:52.116Z,2.11
2022-09-10T04:38:59.244Z,2.69
2022-09-10T04:44:02.331Z,2.70
2022-09-10T04:49:04.658Z,2.80
2022-09-10T04:54:07.775Z,3.22
2022-09-10T04:59:12.793Z,3.02
2022-09-10T05:04:15.094Z,3.38
2022-09-10T05:09:34.090Z,3.58
2022-09-10T05:14:38.840Z,3.52
2022-09-10T05:19:42.166Z,3.41
2022-09-10T05:24:47.101Z,3.87
2022-09-10T05:29:50.372Z,3.96
2022-09-10T05:34:58.204Z,4.16
2022-09-10T05:40:13.580Z,2.81
2022-09-10T05:45:17.919Z,3.76
2022-09-10T05:50:20.589Z,2.89
2022-09-10T05:55:23.368Z,4.85
2022-09-10T06:00:26.485Z,3.23
2022-09-10T06:05:36.154Z,5.46
2022-09-10T06:10:44.185Z,4.43
2022-09-10T06:15:47.850Z,5.85
2022-09-10T06:20:50.368Z,6.10
2022-09-10T06:26:04.598Z,6.34
2022-09-10T06:31:14.554Z,6.67
2022-09-10T06:36:19.546Z,6.62
2022-09-10T06:41:27.191Z,7.18
2022-09-10T06:47:19.911Z,7.58
2022-09-10T06:52:13.285Z,7.69
2022-09-10T06:57:15.500Z,7.67
2022-09-10T07:02:17.802Z,7.51
2022-09-10T07:07:22.318Z,8.36
2022-09-10T07:12:26.174Z,8.40
2022-09-10T07:17:31.753Z,8.49
2022-09-10T07:22:35.722Z,8.37
2022-09-10T07:27:38.992Z,8.69
2022-09-10T07:32:43.440Z,9.01
2022-09-10T07:37:50.561Z,9.39
2022-09-10T07:42:55.960Z,9.28
2022-09-10T07:47:59.267Z,9.65
2022-09-10T07:53:05.799Z,6.87
2022-09-10T07:58:10.488Z,8.20
2022-09-10T08:03:20.447Z,8.39
2022-09-10T08:08:24.575Z,9.58
2022-09-10T08:13:30.123Z,8.81
2022-09-10T08:18:33.608Z,8.53
2022-09-10T08:23:37.685Z,9.10
2022-09-10T08:28:40.490Z,7.63
2022-09-10T08:33:51.716Z,9.97
2022-09-10T08:38:59.810Z,9.18
2022-09-10T08:44:34.879Z,8.76
2022-09-10T08:49:50.562Z,10.18
2022-09-10T08:55:06.164Z,11.69
2022-09-10T09:00:13.751Z,9.90
2022-09-10T09:05:23.033Z,8.56
2022-09-10T09:10:47.924Z,11.45
2022-09-10T09:15:59.549Z,9.80
2022-09-10T09:21:28.261Z,9.75
2022-09-10T09:26:41.721Z,12.09
2022-09-10T09:31:49.856Z,12.16
2022-09-10T09:36:54.863Z,12.65
2022-09-10T09:42:12.673Z,12.55
2022-09-10T09:47:15.117Z,12.57
2022-09-10T09:52:25.057Z,12.82
2022-09-10T09:57:28.071Z,12.58
2022-09-10T10:02:30.835Z,12.30
2022-09-10T10:07:42.512Z,12.63
2022-09-10T10:12:49.579Z,13.20
2022-09-10T10:17:51.906Z,12.91
2022-09-10T10:22:59.728Z,12.99
2022-09-10T10:28:21.159Z,12.26
2022-09-10T10:33:29.931Z,13.65
2022-09-10T10:38:41.111Z,13.84
2022-09-10T10:44:10.874Z,13.80
2022-09-10T10:49:36.036Z,13.93
2022-09-10T10:54:59.803Z,14.05
2022-09-10T11:00:10.197Z,13.86
2022-09-10T11:05:42.485Z,13.69
2022-09-10T11:10:52.385Z,14.28
2022-09-10T11:16:04.488Z,14.23
2022-09-10T11:21:33.958Z,14.00
2022-09-10T11:26:45.229Z,14.27
2022-09-10T11:32:06.522Z,14.41
2022-09-10T11:37:29.422Z,14.50
2022-09-10T11:42:42.528Z,14.61
2022-09-10T11:47:57.472Z,14.45
2022-09-10T11:53:05.966Z,14.54
2022-09-10T11:58:11.190Z,14.79
2022-09-10T12:03:54.508Z,14.88
2022-09-10T12:09:21.955Z,14.95
2022-09-10T12:14:24.268Z,14.74
2022-09-10T12:19:37.846Z,14.87
2022-09-10T12:24:40.449Z,14.71
2022-09-10T12:29:43.358Z,14.75
2022-09-10T12:34:50.052Z,14.63
2022-09-10T12:40:26.687Z,15.03
2022-09-10T12:46:01.055Z,15.10
2022-09-10T12:51:18.681Z,15.11
2022-09-10T12:56:40.633Z,15.08
2022-09-10T13:01:46.668Z,15.04
2022-09-10T13:06:49.148Z,14.96
2022-09-10T13:11:56.826Z,15.10
2022-09-10T13:16:59.200Z,14.57
2022-09-10T13:22:01.660Z,14.73
2022-09-10T13:27:13.159Z,15.11
2022-09-10T13:32:30.412Z,14.87
2022-09-10T13:37:46.932Z,14.73
2022-09-10T13:42:58.856Z,14.71
2022-09-10T13:48:15.288Z,14.82
2022-09-10T13:53:18.285Z,14.64
2022-09-10T13:58:23.407Z,14.97
2022-09-10T14:03:40.673Z,14.78
2022-09-10T14:08:58.109Z,14.95
2022-09-10T14:14:06.193Z,14.86
2022-09-10T14:19:16.722Z,14.63
2022-09-10T14:24:29.899Z,14.29
2022-09-10T14:29:32.288Z,14.35
2022-09-10T14:34:39.419Z,13.82
2022-09-10T14:39:45.227Z,13.85
2022-09-10T14:44:47.549Z,14.21
2022-09-10T14:49:49.806Z,13.57
2022-09-10T14:54:51.992Z,13.91
2022-09-10T14:59:57.245Z,13.80
2022-09-10T15:04:59.961Z,13.50
2022-09-10T15:10:02.487Z,13.34
2022-09-10T15:15:06.153Z,13.44
2022-09-10T15:20:13.660Z,13.23
2022-09-10T15:25:37.542Z,13.24
2022-09-10T15:30:41.213Z,12.85
2022-09-10T15:35:43.438Z,12.45
2022-09-10T15:40:48.891Z,12.84
2022-09-10T15:45:53.463Z,12.39
2022-09-10T15:50:56.632Z,12.19
2022-09-10T15:56:03.250Z,11.94
2022-09-10T16:01:14.168Z,12.01
2022-09-10T16:06:18.512Z,11.45
2022-09-10T16:11:20.953Z,11.60
2022-09-10T16:16:26.487Z,11.58
2022-09-10T16:21:31.420Z,11.36
2022-09-10T16:26:39.256Z,10.92
2022-09-10T16:31:53.601Z,11.14
2022-09-10T16:36:56.151Z,10.65
2022-09-10T16:42:01.462Z,10.54
2022-09-10T16:47:04.034Z,10.44
2022-09-10T16:52:06.387Z,10.67
2022-09-10T16:57:08.668Z,10.54
2022-09-10T17:02:13.932Z,9.57
2022-09-10T17:07:16.185Z,9.38
2022-09-10T17:12:18.599Z,9.90
2022-09-10T17:17:28.232Z,8.73
2022-09-10T17:22:33.369Z,8.24
2022-09-10T17:27:35.736Z,9.62
2022-09-10T17:32:38.137Z,9.59
2022-09-10T17:37:41.485Z,9.76
2022-09-10T17:42:45.751Z,9.47
2022-09-10T17:47:48.804Z,9.24
2022-09-10T17:52:51.417Z,9.48
2022-09-10T17:57:53.734Z,9.01
2022-09-10T18:02:56.327Z,9.25
2022-09-10T18:08:00.691Z,9.03
2022-09-10T18:13:04.045Z,9.13
2022-09-10T18:18:06.644Z,8.68
2022-09-10T18:23:09.146Z,8.71
2022-09-10T18:28:17.177Z,8.84
2022-09-10T18:33:20.781Z,8.91
2022-09-10T18:38:32.553Z,8.65
2022-09-10T18:43:40.195Z,8.76
2022-09-10T18:48:43.211Z,8.58
2022-09-10T18:53:52.145Z,8.05
2022-09-10T18:59:00.792Z,8.53
2022-09-10T19:04:05.598Z,8.47
2022-09-10T19:09:11.240Z,8.20
2022-09-10T19:14:26.654Z,8.39
2022-09-10T19:19:35.262Z,8.25
2022-09-10T19:24:53.867Z,7.90
2022-09-10T19:29:57.256Z,8.00
2022-09-10T19:34:59.740Z,7.26
2022-09-10T19:40:02.736Z,7.58
2022-09-10T19:45:10.077Z,7.58
2022-09-10T19:50:13.047Z,7.74
2022-09-10T19:55:15.717Z,7.66
2022-09-10T20:00:43.008Z,7.68
2022-09-10T20:05:45.608Z,7.51
2022-09-10T20:10:52.246Z,7.42
2022-09-10T20:15:55.272Z,7.32
2022-09-10T20:21:11.056Z,7.41
2022-09-10T20:26:20.568Z,7.16
2022-09-10T20:31:24.529Z,7.25
2022-09-10T20:36:28.265Z,6.85
2022-09-10T20:41:30.843Z,7.07
2022-09-10T20:46:34.861Z,7.09
2022-09-10T20:51:39.084Z,7.22
2022-09-10T20:56:41.736Z,7.01
2022-09-10T21:01:46.252Z,7.15
2022-09-10T21:06:48.951Z,6.77
2022-09-10T21:11:52.084Z,6.82
2022-09-10T21:16:54.428Z,6.71
2022-09-10T21:21:56.871Z,6.79
2022-09-10T21:26:59.820Z,6.52
2022-09-10T21:32:02.625Z,6.42
2022-09-10T21:37:04.839Z,6.43
2022-09-10T21:42:07.241Z,6.58
2022-09-10T21:47:11.162Z,6.53
2022-09-10T21:52:14.937Z,6.50
2022-09-10T21:57:17.188Z,6.18
2022-09-10T22:02:19.536Z,6.27
2022-09-10T22:07:22.204Z,6.35
2022-09-10T22:12:24.664Z,6.23
2022-09-10T22:17:26.888Z,6.14
2022-09-10T22:22:29.317Z,5.95
2022-09-10T22:27:31.628Z,6.06
2022-09-10T22:32:34.264Z,5.99
2022-09-10T22:37:36.617Z,6.02
2022-09-10T22:42:38.905Z,5.72
2022-09-10T22:47:41.169Z,6.03
2022-09-10T22:52:47.054Z,5.89
2022-09-10T22:57:49.278Z,5.84
2022-09-10T23:02:55.086Z,5.02
2022-09-10T23:07:57.860Z,5.39
2022-09-10T23:13:00.404Z,5.60
2022-09-10T23:18:02.627Z,5.66
2022-09-10T23:23:04.974Z,5.66
2022-09-10T23:28:07.521Z,4.89
2022-09-10T23:33:10.107Z,5.14
2022-09-10T23:38:12.333Z,5.53
2022-09-10T23:43:14.720Z,5.03
2022-09-10T23:48:16.959Z,5.46
2022-09-10T23:53:19.801Z,5.17
2022-09-10T23:58:22.095Z,5.34
